Time;durP1;ratioP1;P1;durP2;ratioP2;P2;SDS_P1;SDS_P2;PMS_P1;PMS_P2;Temp;Humidity;BMP_temperature;BMP_pressure;BME280_temperature;BME280_humidity;BME280_pressure;Samples;Min_cycle;Max_cycle;Signal;HPM_P1;HPM_P2
2022/07/26 00:00:55;;;;;;;;;;;;;;;19.68;100.00;99832.38;3056889;19;1003;-48
2022/07/26 00:01:59;;;;;;;;;;;;;;;19.69;100.00;99825.97;3057567;19;1628;-48
2022/07/26 00:03:01;;;;;;;;;;;;;;;19.70;100.00;99827.66;3056847;19;1849;-51
2022/07/26 00:04:06;;;;;;;;;;;;;;;19.71;100.00;99828.50;3058661;19;1697;-50
2022/07/26 00:05:08;;;;;;;;;;;;;;;19.71;100.00;99826.66;3058305;19;1047;-48
2022/07/26 00:06:12;;;;;;;;;;;;;;;19.71;100.00;99826.66;3058375;19;1676;-48
2022/07/26 00:07:14;;;;;;;;;;;;;;;19.71;100.00;99825.78;3058499;19;971;-48
2022/07/26 00:08:19;;;;;;;;;;;;;;;19.68;100.00;99816.16;3059248;19;913;-50
2022/07/26 00:09:21;;;;;;;;;;;;;;;19.69;100.00;99817.00;3058451;19;1015;-51
2022/07/26 00:10:25;;;;;;;;;;;;;;;19.75;100.00;99817.19;3058205;19;1016;-50
2022/07/26 00:11:29;;;;;;;;;;;;;;;19.69;100.00;99809.72;3058481;19;987;-50
2022/07/26 00:12:34;;;;;;;;;;;;;;;19.67;100.00;99806.38;3058248;19;980;-48
2022/07/26 00:13:36;;;;;;;;;;;;;;;19.67;100.00;99806.38;3057562;19;884;-48
2022/07/26 00:14:40;;;;;;;;;;;;;;;19.66;100.00;99807.38;3057670;19;975;-50
2022/07/26 00:15:42;;;;;;;;;;;;;;;19.66;100.00;99806.53;3058465;19;849;-50
2022/07/26 00:16:47;;;;;;;;;;;;;;;19.65;100.00;99815.66;3058284;19;985;-50
2022/07/26 00:17:49;;;;;;;;;;;;;;;19.64;100.00;99814.81;3058337;19;999;-48
2022/07/26 00:18:53;;;;;;;;;;;;;;;19.65;100.00;99810.25;3058203;19;1112;-48
2022/07/26 00:19:55;;;;;;;;;;;;;;;19.69;100.00;99807.00;3058437;19;868;-50
2022/07/26 00:20:59;;;;;;;;;;;;;;;19.66;100.00;99807.38;3057899;19;917;-48
2022/07/26 00:23:21;;;;;;;;;;;;;;;19.62;100.00;99803.31;3057495;19;1854;-49
2022/07/26 00:24:22;;;;;;;;;;;;;;;19.62;100.00;99811.44;3058411;19;896;-50
2022/07/26 00:25:27;;;;;;;;;;;;;;;19.60;100.00;99801.78;3058385;19;1775;-48
2022/07/26 00:26:29;;;;;;;;;;;;;;;19.57;100.00;99802.94;3058120;19;1328;-51
2022/07/26 00:27:35;;;;;;;;;;;;;;;19.55;100.00;99794.19;3058213;19;1087;-48
2022/07/26 00:28:37;;;;;;;;;;;;;;;19.54;100.00;99792.50;3058004;19;1000;-49
2022/07/26 00:29:42;;;;;;;;;;;;;;;19.52;100.00;99791.81;3058047;19;1598;-50
2022/07/26 00:30:45;;;;;;;;;;;;;;;19.52;100.00;99790.97;3058110;19;909;-50
2022/07/26 00:31:50;;;;;;;;;;;;;;;19.53;100.00;99795.34;3058037;19;976;-51
2022/07/26 00:32:53;;;;;;;;;;;;;;;19.52;100.00;99791.81;3058283;19;974;-50
2022/07/26 00:33:58;;;;;;;;;;;;;;;19.51;100.00;99789.25;3058178;19;876;-49
2022/07/26 00:35:00;;;;;;;;;;;;;;;19.49;100.00;99789.44;3057988;19;964;-50
2022/07/26 00:36:04;;;;;;;;;;;;;;;19.47;100.00;99786.00;3057939;19;1361;-50
2022/07/26 00:37:06;;;;;;;;;;;;;;;19.45;100.00;99788.03;3057973;19;977;-48
2022/07/26 00:38:10;;;;;;;;;;;;;;;19.44;100.00;99780.97;3058230;19;971;-48
2022/07/26 00:39:12;;;;;;;;;;;;;;;19.42;100.00;99785.69;3057975;19;953;-48
2022/07/26 00:40:17;;;;;;;;;;;;;;;19.42;100.00;99793.81;3058324;19;897;-48
2022/07/26 00:41:19;;;;;;;;;;;;;;;19.41;100.00;99790.25;3057850;19;985;-47
2022/07/26 00:42:24;;;;;;;;;;;;;;;19.37;100.00;99780.75;3057661;19;979;-50
2022/07/26 00:43:25;;;;;;;;;;;;;;;19.38;100.00;99781.63;3059139;19;1838;-48
2022/07/26 00:44:43;;;;;;;;;;;;;;;19.36;100.00;99772.81;3058316;19;900;-47
2022/07/26 00:45:45;;;;;;;;;;;;;;;19.35;100.00;99776.53;3058323;19;869;-50
2022/07/26 00:46:50;;;;;;;;;;;;;;;19.32;100.00;99771.47;3056601;19;1721;-48
2022/07/26 00:47:52;;;;;;;;;;;;;;;19.26;100.00;99772.97;3058200;19;873;-49
2022/07/26 00:48:56;;;;;;;;;;;;;;;19.26;100.00;99766.72;3056909;19;1011;-50
2022/07/26 00:49:58;;;;;;;;;;;;;;;19.25;100.00;99765.88;3057055;19;940;-50
2022/07/26 00:51:02;;;;;;;;;;;;;;;19.23;100.00;99757.06;3056774;19;854;-48
2022/07/26 00:52:05;;;;;;;;;;;;;;;19.19;100.00;99757.59;3057094;19;779;-50
2022/07/26 00:53:09;;;;;;;;;;;;;;;19.20;100.00;99762.00;3056872;19;884;-48
2022/07/26 00:54:12;;;;;;;;;;;;;;;19.20;100.00;99762.81;3058010;19;945;-51
2022/07/26 00:55:16;;;;;;;;;;;;;;;19.19;100.00;99765.72;3057480;19;928;-48
2022/07/26 00:56:18;;;;;;;;;;;;;;;19.17;100.00;99756.91;3058056;19;1031;-51
2022/07/26 00:57:23;;;;;;;;;;;;;;;19.15;100.00;99759.78;3055747;19;1158;-48
2022/07/26 00:58:25;;;;;;;;;;;;;;;19.13;100.00;99761.81;3057356;19;932;-50
2022/07/26 00:59:30;;;;;;;;;;;;;;;19.13;100.00;99760.94;3057785;19;1595;-47
2022/07/26 01:00:32;;;;;;;;;;;;;;;19.11;100.00;99760.28;3057940;19;1011;-47
2022/07/26 01:01:36;;;;;;;;;;;;;;;19.08;100.00;99758.72;3057416;19;980;-51
2022/07/26 01:02:38;;;;;;;;;;;;;;;19.05;100.00;99765.34;3058199;19;846;-48
2022/07/26 01:03:43;;;;;;;;;;;;;;;19.03;100.00;99756.56;3056489;19;1862;-48
2022/07/26 01:04:45;;;;;;;;;;;;;;;19.00;100.00;99750.63;3058164;19;893;-51
2022/07/26 01:05:50;;;;;;;;;;;;;;;18.97;100.00;99740.97;3058704;19;1816;-51
2022/07/26 01:06:52;;;;;;;;;;;;;;;18.95;100.00;99743.03;3057064;19;901;-48
2022/07/26 01:07:56;;;;;;;;;;;;;;;18.93;100.00;99739.63;3057317;19;2080;-50
2022/07/26 01:08:58;;;;;;;;;;;;;;;18.90;100.00;99728.31;3057145;19;901;-50
2022/07/26 01:10:03;;;;;;;;;;;;;;;18.88;100.00;99747.38;3057347;19;1727;-48
2022/07/26 01:11:05;;;;;;;;;;;;;;;18.90;100.00;99737.25;3059594;19;880;-49
2022/07/26 01:12:10;;;;;;;;;;;;;;;18.87;100.00;99740.28;3057310;19;1302;-50
2022/07/26 01:13:12;;;;;;;;;;;;;;;18.87;100.00;99739.44;3058977;19;886;-50
2022/07/26 01:14:21;;;;;;;;;;;;;;;18.85;100.00;99744.16;3059217;19;876;-49
2022/07/26 01:15:22;;;;;;;;;;;;;;;18.85;100.00;99736.91;3059069;19;992;-48
2022/07/26 01:16:27;;;;;;;;;;;;;;;18.83;100.00;99736.25;3057474;19;968;-48
2022/07/26 01:17:29;;;;;;;;;;;;;;;18.83;100.00;99738.09;3057692;19;960;-50
2022/07/26 01:18:37;;;;;;;;;;;;;;;18.82;100.00;99736.41;3057316;19;1107;-49
2022/07/26 01:19:39;;;;;;;;;;;;;;;18.79;100.00;99732.16;3057630;19;1027;-50
2022/07/26 01:20:44;;;;;;;;;;;;;;;18.77;100.00;99734.19;3057416;19;879;-50
2022/07/26 01:21:45;;;;;;;;;;;;;;;18.77;100.00;99734.19;3056856;19;876;-50
2022/07/26 01:22:50;;;;;;;;;;;;;;;18.75;100.00;99730.78;3056363;19;1675;-47
2022/07/26 01:23:52;;;;;;;;;;;;;;;18.75;100.00;99738.06;3057405;19;1850;-48
2022/07/26 01:24:56;;;;;;;;;;;;;;;18.72;100.00;99724.91;3057470;19;864;-47
2022/07/26 01:25:58;;;;;;;;;;;;;;;18.69;100.00;99726.06;3057475;19;894;-50
2022/07/26 01:27:03;;;;;;;;;;;;;;;18.69;100.00;99717.97;3057291;19;971;-52
2022/07/26 01:28:05;;;;;;;;;;;;;;;18.67;100.00;99728.09;3057527;19;960;-48
2022/07/26 01:29:09;;;;;;;;;;;;;;;18.67;100.00;99734.34;3057386;19;991;-48
2022/07/26 01:30:11;;;;;;;;;;;;;;;18.67;100.00;99733.47;3057627;19;888;-50
2022/07/26 01:31:16;;;;;;;;;;;;;;;18.65;100.00;99722.84;3057512;19;923;-50
2022/07/26 01:32:18;;;;;;;;;;;;;;;18.64;100.00;99723.84;3057369;19;1078;-49
2022/07/26 01:33:26;;;;;;;;;;;;;;;18.64;100.00;99733.81;3056859;19;1047;-49
2022/07/26 01:34:28;;;;;;;;;;;;;;;18.63;100.00;99726.72;3057236;19;1260;-48
2022/07/26 01:35:33;;;;;;;;;;;;;;;18.62;100.00;99720.47;3056928;19;1223;-49
2022/07/26 01:36:35;;;;;;;;;;;;;;;18.61;100.00;99723.31;3057568;19;1011;-50
2022/07/26 01:37:42;;;;;;;;;;;;;;;18.60;100.00;99716.22;3057310;19;888;-49
2022/07/26 01:38:44;;;;;;;;;;;;;;;18.60;100.00;99721.63;3057317;19;1192;-49
2022/07/26 01:39:48;;;;;;;;;;;;;;;18.60;100.00;99722.47;3056940;19;1737;-48
2022/07/26 01:40:50;;;;;;;;;;;;;;;18.60;100.00;99721.63;3057372;19;1092;-50
2022/07/26 01:41:55;;;;;;;;;;;;;;;18.61;100.00;99717.91;3057411;19;1531;-51
2022/07/26 01:42:57;;;;;;;;;;;;;;;18.60;100.00;99721.63;3057830;19;976;-51
2022/07/26 01:44:02;;;;;;;;;;;;;;;18.58;100.00;99718.25;3056757;19;1850;-51
2022/07/26 01:45:04;;;;;;;;;;;;;;;18.56;100.00;99720.25;3057054;19;910;-50
2022/07/26 01:46:09;;;;;;;;;;;;;;;18.56;100.00;99725.66;3057081;19;1038;-50
2022/07/26 01:47:11;;;;;;;;;;;;;;;18.54;100.00;99716.84;3057086;19;916;-50
2022/07/26 01:48:16;;;;;;;;;;;;;;;18.55;100.00;99723.97;3056377;19;2615;-48
2022/07/26 01:49:18;;;;;;;;;;;;;;;18.53;100.00;99720.56;3056156;19;893;-50
2022/07/26 01:50:22;;;;;;;;;;;;;;;18.54;100.00;99714.16;3057301;19;1023;-49
2022/07/26 01:51:24;;;;;;;;;;;;;;;18.52;100.00;99722.41;3057042;19;928;-48
2022/07/26 01:52:28;;;;;;;;;;;;;;;18.50;100.00;99710.94;3057156;19;881;-47
2022/07/26 01:53:30;;;;;;;;;;;;;;;18.50;100.00;99707.38;3057094;19;986;-51
2022/07/26 01:54:35;;;;;;;;;;;;;;;18.50;100.00;99710.09;3057215;19;857;-50
2022/07/26 01:55:36;;;;;;;;;;;;;;;18.48;100.00;99712.94;3056756;19;900;-49
2022/07/26 01:56:42;;;;;;;;;;;;;;;18.47;100.00;99705.03;3056803;19;1670;-50
2022/07/26 01:57:44;;;;;;;;;;;;;;;18.46;100.00;99706.03;3055792;19;929;-49
2022/07/26 01:58:48;;;;;;;;;;;;;;;18.44;100.00;99700.78;3055915;19;991;-49
2022/07/26 01:59:50;;;;;;;;;;;;;;;18.42;100.00;99702.81;3056889;19;960;-47
2022/07/26 02:00:55;;;;;;;;;;;;;;;18.40;100.00;99685.06;3056875;19;1588;-48
2022/07/26 02:01:57;;;;;;;;;;;;;;;18.39;100.00;99697.72;3058093;19;955;-49
2022/07/26 02:03:01;;;;;;;;;;;;;;;18.38;100.00;99690.63;3057080;19;897;-49
2022/07/26 02:04:03;;;;;;;;;;;;;;;18.38;100.00;99689.78;3056900;19;968;-50
2022/07/26 02:05:09;;;;;;;;;;;;;;;18.36;100.00;99688.09;3057201;19;1023;-49
2022/07/26 02:06:10;;;;;;;;;;;;;;;18.38;100.00;99689.78;3057137;19;987;-47
2022/07/26 02:07:18;;;;;;;;;;;;;;;18.37;100.00;99694.34;3056996;19;1023;-47
2022/07/26 02:08:22;;;;;;;;;;;;;;;18.36;100.00;99693.47;3056861;19;918;-47
2022/07/26 02:09:24;;;;;;;;;;;;;;;18.38;100.00;99684.38;3056974;19;1331;-48
2022/07/26 02:11:49;;;;;;;;;;;;;;;18.36;100.00;99687.25;3056755;19;2729;-49
2022/07/26 02:12:50;;;;;;;;;;;;;;;18.34;100.00;99686.59;3056627;19;973;-47
2022/07/26 02:13:55;;;;;;;;;;;;;;;18.32;100.00;99686.75;3057074;19;896;-48
2022/07/26 02:14:57;;;;;;;;;;;;;;;18.30;100.00;99677.94;3056804;19;999;-47
2022/07/26 02:16:02;;;;;;;;;;;;;;;18.31;100.00;99684.19;3056742;19;1709;-50
2022/07/26 02:17:04;;;;;;;;;;;;;;;18.29;100.00;99686.22;3056562;19;946;-48
2022/07/26 02:18:08;;;;;;;;;;;;;;;18.25;100.00;99680.28;3056856;19;944;-48
2022/07/26 02:19:10;;;;;;;;;;;;;;;18.25;100.00;99685.69;3056764;19;1027;-47
2022/07/26 02:20:15;;;;;;;;;;;;;;;18.25;100.00;99682.13;3057124;19;987;-49
2022/07/26 02:21:17;;;;;;;;;;;;;;;18.24;100.00;99683.13;3056672;19;1015;-48
2022/07/26 02:22:22;;;;;;;;;;;;;;;18.22;100.00;99686.03;3056874;19;1617;-47
2022/07/26 02:23:24;;;;;;;;;;;;;;;18.21;100.00;99673.53;3055739;19;960;-49
2022/07/26 02:24:29;;;;;;;;;;;;;;;18.20;100.00;99674.53;3055601;19;1864;-49
2022/07/26 02:25:31;;;;;;;;;;;;;;;18.21;100.00;99684.34;3056651;19;993;-49
2022/07/26 02:26:35;;;;;;;;;;;;;;;18.20;100.00;99674.53;3056514;19;892;-50
2022/07/26 02:27:37;;;;;;;;;;;;;;;18.19;100.00;99669.31;3056469;19;940;-50
2022/07/26 02:28:41;;;;;;;;;;;;;;;18.17;100.00;99669.47;3056606;19;960;-48
2022/07/26 02:29:43;;;;;;;;;;;;;;;18.18;100.00;99673.84;3056416;19;964;-49
2022/07/26 02:30:48;;;;;;;;;;;;;;;18.17;100.00;99674.00;3056141;19;980;-48
2022/07/26 02:31:51;;;;;;;;;;;;;;;18.15;100.00;99666.06;3056697;19;936;-48
2022/07/26 02:32:56;;;;;;;;;;;;;;;18.14;100.00;99664.38;3055502;19;866;-51
2022/07/26 02:33:58;;;;;;;;;;;;;;;18.13;100.00;99654.56;3055567;19;984;-49
2022/07/26 02:35:02;;;;;;;;;;;;;;;18.11;100.00;99656.63;3056563;19;1576;-47
2022/07/26 02:36:04;;;;;;;;;;;;;;;18.08;100.00;99659.63;3056697;19;896;-46
2022/07/26 02:37:08;;;;;;;;;;;;;;;18.07;100.00;99657.94;3056460;19;912;-50
2022/07/26 02:38:11;;;;;;;;;;;;;;;18.08;100.00;99656.94;3056636;19;948;-49
2022/07/26 02:39:16;;;;;;;;;;;;;;;18.06;100.00;99663.50;3055279;19;972;-48
2022/07/26 02:42:01;;;;;;;;;;;;;;;18.05;100.00;99656.41;3052325;19;1700;-48
2022/07/26 02:43:04;;;;;;;;;;;;;;;18.06;100.00;99647.31;3055382;19;1200;-49
2022/07/26 02:44:08;;;;;;;;;;;;;;;18.06;100.00;99648.16;3055803;19;873;-48
2022/07/26 02:45:11;;;;;;;;;;;;;;;18.06;100.00;99645.44;3056800;19;1869;-48
2022/07/26 02:46:15;;;;;;;;;;;;;;;18.07;100.00;99638.19;3055695;19;1018;-49
2022/07/26 02:47:17;;;;;;;;;;;;;;;18.12;100.00;99641.25;3056227;19;1022;-46
2022/07/26 02:48:22;;;;;;;;;;;;;;;18.11;100.00;99635.03;3056459;19;951;-50
2022/07/26 02:49:23;;;;;;;;;;;;;;;18.13;100.00;99629.44;3056356;19;876;-48
2022/07/26 02:50:29;;;;;;;;;;;;;;;18.12;100.00;99631.28;3056178;19;960;-50
2022/07/26 02:51:31;;;;;;;;;;;;;;;18.11;100.00;99621.53;3056157;19;951;-48
2022/07/26 02:52:35;;;;;;;;;;;;;;;18.14;100.00;99623.88;3056351;19;900;-47
2022/07/26 02:53:37;;;;;;;;;;;;;;;18.16;100.00;99621.84;3056248;19;895;-47
2022/07/26 02:54:41;;;;;;;;;;;;;;;18.20;100.00;99617.81;3056110;19;927;-50
2022/07/26 02:55:43;;;;;;;;;;;;;;;18.27;100.00;99620.69;3056319;19;891;-49
2022/07/26 02:56:48;;;;;;;;;;;;;;;18.31;100.00;99620.22;3056324;19;1024;-49
2022/07/26 02:57:50;;;;;;;;;;;;;;;18.61;100.00;99626.03;3055989;19;995;-49
2022/07/26 02:58:54;;;;;;;;;;;;;;;18.43;100.00;99625.31;3056230;19;963;-47
2022/07/26 02:59:56;;;;;;;;;;;;;;;18.38;100.00;99630.34;3056325;19;1169;-50
2022/07/26 03:01:00;;;;;;;;;;;;;;;18.39;100.00;99632.03;3055885;19;1297;-49
2022/07/26 03:02:02;;;;;;;;;;;;;;;18.42;100.00;99631.72;3056556;19;894;-48
2022/07/26 03:03:07;;;;;;;;;;;;;;;18.51;100.00;99630.72;3056502;19;884;-48
2022/07/26 03:04:09;;;;;;;;;;;;;;;18.61;100.00;99637.69;3056020;19;1019;-50
2022/07/26 03:05:14;;;;;;;;;;;;;;;18.80;100.00;99646.50;3055509;19;1853;-48
2022/07/26 03:06:16;;;;;;;;;;;;;;;19.50;100.00;99658.50;3056058;19;1035;-48
2022/07/26 03:07:20;;;;;;;;;;;;;;;19.76;100.00;99661.84;3055936;19;994;-49
2022/07/26 03:08:22;;;;;;;;;;;;;;;19.95;100.00;99673.28;3056286;19;912;-50
2022/07/26 03:09:27;;;;;;;;;;;;;;;19.99;100.00;99682.75;3055023;19;960;-48
2022/07/26 03:10:31;;;;;;;;;;;;;;;20.00;100.00;99696.13;3056206;19;1014;-49
2022/07/26 03:11:33;;;;;;;;;;;;;;;19.98;100.00;99700.03;3055941;19;991;-48
2022/07/26 03:12:37;;;;;;;;;;;;;;;19.74;100.00;99706.34;3056070;19;908;-49
2022/07/26 03:13:40;;;;;;;;;;;;;;;19.39;100.00;99700.28;3056029;19;904;-48
2022/07/26 03:14:44;;;;;;;;;;;;;;;19.40;100.00;99698.41;3055858;19;961;-49
2022/07/26 03:15:46;;;;;;;;;;;;;;;19.48;100.00;99694.84;3055895;19;1336;-51
2022/07/26 03:16:50;;;;;;;;;;;;;;;19.53;100.00;99687.94;3056178;19;1046;-50
2022/07/26 03:17:52;;;;;;;;;;;;;;;19.54;100.00;99686.94;3055860;19;975;-49
2022/07/26 03:18:57;;;;;;;;;;;;;;;19.49;100.00;99689.28;3056009;19;1707;-50
2022/07/26 03:19:58;;;;;;;;;;;;;;;19.57;100.00;99691.97;3055823;19;923;-49
2022/07/26 03:21:03;;;;;;;;;;;;;;;19.62;100.00;99692.31;3055859;19;968;-50
2022/07/26 03:22:05;;;;;;;;;;;;;;;19.71;100.00;99694.00;3055851;19;876;-48
2022/07/26 03:23:09;;;;;;;;;;;;;;;19.81;100.00;99696.50;3057232;19;944;-48
2022/07/26 03:24:12;;;;;;;;;;;;;;;19.96;100.00;99699.34;3055930;19;892;-49
2022/07/26 03:25:16;;;;;;;;;;;;;;;20.21;100.00;99695.53;3055661;19;1842;-49
2022/07/26 03:26:19;;;;;;;;;;;;;;;20.61;100.00;99704.53;3055628;19;906;-48
2022/07/26 03:27:23;;;;;;;;;;;;;;;20.93;100.00;99706.19;3055935;19;1633;-49
2022/07/26 03:28:25;;;;;;;;;;;;;;;21.23;100.00;99709.91;3057131;19;1007;-50
2022/07/26 03:29:29;;;;;;;;;;;;;;;21.50;100.00;99714.75;3055731;19;1105;-48
2022/07/26 03:30:31;;;;;;;;;;;;;;;21.68;100.00;99723.41;3055789;19;1780;-49
2022/07/26 03:31:35;;;;;;;;;;;;;;;21.66;100.00;99725.47;3056135;19;857;-48
2022/07/26 03:32:37;;;;;;;;;;;;;;;21.52;100.00;99721.69;3055921;19;857;-52
2022/07/26 03:33:42;;;;;;;;;;;;;;;21.47;100.00;99721.41;3055971;19;1039;-51
2022/07/26 03:34:44;;;;;;;;;;;;;;;21.41;100.00;99724.84;3055594;19;1801;-50
2022/07/26 03:35:48;;;;;;;;;;;;;;;21.43;100.00;99722.78;3056016;19;888;-48
2022/07/26 03:36:54;;;;;;;;;;;;;;;21.61;100.00;99719.75;3055834;19;874;-51
2022/07/26 03:37:55;;;;;;;;;;;;;;;21.96;100.00;99718.22;3055978;19;987;-50
2022/07/26 03:39:00;;;;;;;;;;;;;;;22.26;100.00;99725.38;3055740;19;880;-48
2022/07/26 03:40:02;;;;;;;;;;;;;;;22.58;100.00;99715.94;3055705;19;1398;-48
2022/07/26 03:41:06;;;;;;;;;;;;;;;22.84;100.00;99726.31;3055171;19;1667;-47
2022/07/26 03:42:13;;;;;;;;;;;;;;;22.87;100.00;99727.81;3055855;19;983;-50
2022/07/26 03:43:18;;;;;;;;;;;;;;;22.70;100.00;99729.06;3055568;19;999;-50
2022/07/26 03:44:23;;;;;;;;;;;;;;;22.51;100.00;99725.91;3055751;19;844;-49
2022/07/26 03:45:28;;;;;;;;;;;;;;;22.38;100.00;99728.44;3055607;19;959;-51
2022/07/26 03:46:30;;;;;;;;;;;;;;;22.26;100.00;99730.81;3054768;19;1888;-50
2022/07/26 03:47:36;;;;;;;;;;;;;;;22.33;100.00;99725.47;3054878;19;953;-51
2022/07/26 03:48:38;;;;;;;;;;;;;;;22.32;100.00;99723.78;3055119;19;920;-49
2022/07/26 03:49:42;;;;;;;;;;;;;;;22.38;100.00;99728.44;3055275;19;1317;-49
2022/07/26 03:50:44;;;;;;;;;;;;;;;22.37;100.00;99723.19;3055659;19;904;-47
2022/07/26 03:51:48;;;;;;;;;;;;;;;22.32;100.00;99717.50;3055696;19;813;-49
2022/07/26 03:52:50;;;;;;;;;;;;;;;22.39;100.00;99713.81;3055645;19;924;-51
2022/07/26 03:53:54;;;;;;;;;;;;;;;22.56;100.00;99709.88;3055505;19;980;-50
2022/07/26 03:54:57;;;;;;;;;;;;;;;23.41;100.00;99716.44;3055604;19;920;-49
2022/07/26 03:57:18;;;;;;;;;;;;;;;24.97;100.00;99733.19;3055662;19;999;-50
2022/07/26 03:58:20;;;;;;;;;;;;;;;25.49;100.00;99733.25;3055557;19;1023;-51
2022/07/26 03:59:26;;;;;;;;;;;;;;;25.80;100.00;99731.84;3055524;19;1179;-48
2022/07/26 04:00:28;;;;;;;;;;;;;;;26.10;100.00;99733.03;3055552;19;1007;-48
2022/07/26 04:01:33;;;;;;;;;;;;;;;26.29;100.00;99736.00;3055528;19;920;-48
2022/07/26 04:02:38;;;;;;;;;;;;;;;26.76;100.00;99735.59;3055442;19;1047;-48
2022/07/26 04:03:40;;;;;;;;;;;;;;;27.73;99.64;99739.03;3055079;19;1016;-48
2022/07/26 04:04:50;;;;;;;;;;;;;;;28.67;92.97;99744.22;3055894;19;954;-47
2022/07/26 04:05:53;;;;;;;;;;;;;;;29.36;84.42;99742.84;3054924;19;1849;-47
2022/07/26 04:06:59;;;;;;;;;;;;;;;30.07;81.55;99744.69;3055636;19;975;-48
2022/07/26 04:08:04;;;;;;;;;;;;;;;30.51;77.11;99748.72;3054919;19;1290;-47
2022/07/26 04:09:09;;;;;;;;;;;;;;;30.88;75.60;99746.50;3055444;19;1046;-47
2022/07/26 04:10:11;;;;;;;;;;;;;;;31.05;73.93;99747.38;3055373;19;908;-48
2022/07/26 04:11:15;;;;;;;;;;;;;;;30.98;73.15;99749.47;3055443;19;1170;-47
2022/07/26 04:12:17;;;;;;;;;;;;;;;30.54;74.67;99744.69;3055242;19;896;-48
2022/07/26 04:13:22;;;;;;;;;;;;;;;29.94;75.69;99744.91;3055604;19;892;-47
2022/07/26 04:14:24;;;;;;;;;;;;;;;29.58;78.07;99746.78;3055492;19;889;-47
2022/07/26 04:15:29;;;;;;;;;;;;;;;29.76;76.33;99743.09;3055333;19;909;-48
2022/07/26 04:16:31;;;;;;;;;;;;;;;29.75;77.11;99735.91;3055039;19;960;-49
2022/07/26 04:17:39;;;;;;;;;;;;;;;30.01;75.24;99746.50;3055891;19;867;-50
2022/07/26 04:18:41;;;;;;;;;;;;;;;30.61;72.93;99742.63;3055050;19;919;-49
2022/07/26 04:19:46;;;;;;;;;;;;;;;30.80;72.63;99749.63;3055451;19;936;-47
2022/07/26 04:20:47;;;;;;;;;;;;;;;30.69;72.65;99742.25;3054987;19;960;-50
2022/07/26 04:21:52;;;;;;;;;;;;;;;30.21;73.94;99740.63;3057303;19;1055;-47
2022/07/26 04:22:54;;;;;;;;;;;;;;;29.95;75.25;99741.06;3058307;19;898;-49
2022/07/26 04:23:58;;;;;;;;;;;;;;;29.62;76.09;99742.47;3058448;19;1015;-48
2022/07/26 04:25:00;;;;;;;;;;;;;;;29.25;77.93;99735.41;3057960;19;957;-49
2022/07/26 04:26:06;;;;;;;;;;;;;;;29.03;78.29;99738.69;3058511;19;884;-49
2022/07/26 04:27:08;;;;;;;;;;;;;;;28.83;78.27;99738.13;3058077;19;1011;-46
2022/07/26 04:28:13;;;;;;;;;;;;;;;28.94;79.96;99742.84;3058324;19;897;-48
2022/07/26 04:29:17;;;;;;;;;;;;;;;29.07;79.89;99741.81;3057831;19;868;-48
2022/07/26 04:30:19;;;;;;;;;;;;;;;29.30;79.68;99743.81;3058211;19;995;-48
2022/07/26 04:31:23;;;;;;;;;;;;;;;29.10;79.11;99744.09;3058140;19;888;-48
2022/07/26 04:32:25;;;;;;;;;;;;;;;28.88;80.04;99743.75;3057997;19;1039;-50
2022/07/26 04:33:30;;;;;;;;;;;;;;;28.80;81.23;99745.97;3058300;19;963;-50
2022/07/26 04:34:32;;;;;;;;;;;;;;;28.87;81.42;99739.31;3058190;19;994;-46
2022/07/26 04:35:36;;;;;;;;;;;;;;;29.03;80.52;99749.69;3057764;19;1670;-50
2022/07/26 04:36:38;;;;;;;;;;;;;;;29.36;80.58;99748.34;3058554;19;1459;-48
2022/07/26 04:37:44;;;;;;;;;;;;;;;29.73;78.95;99749.06;3058339;19;1504;-50
2022/07/26 04:38:46;;;;;;;;;;;;;;;29.80;77.63;99759.97;3059216;19;1744;-47
2022/07/26 04:39:50;;;;;;;;;;;;;;;29.62;77.65;99747.97;3059154;19;1457;-47
2022/07/26 04:40:56;;;;;;;;;;;;;;;29.36;77.37;99742.84;3058862;19;1367;-47
2022/07/26 04:42:01;;;;;;;;;;;;;;;29.17;78.42;99738.50;3057924;19;1970;-49
2022/07/26 04:43:03;;;;;;;;;;;;;;;29.09;78.58;99725.09;3059082;19;1343;-50
2022/07/26 04:44:07;;;;;;;;;;;;;;;29.10;79.15;99729.53;3058804;19;1399;-47
2022/07/26 04:45:11;;;;;;;;;;;;;;;29.24;77.55;99722.75;3058928;19;1885;-48
2022/07/26 04:46:17;;;;;;;;;;;;;;;29.58;77.63;99727.53;3058715;19;1223;-50
2022/07/26 04:47:19;;;;;;;;;;;;;;;30.09;76.45;99734.28;3057802;19;1857;-50
2022/07/26 04:48:24;;;;;;;;;;;;;;;30.56;73.82;99725.97;3058655;19;1791;-48
2022/07/26 04:49:26;;;;;;;;;;;;;;;31.12;71.36;99737.09;3057750;19;1271;-48
2022/07/26 04:50:30;;;;;;;;;;;;;;;31.54;68.74;99741.41;3059156;19;1370;-46
2022/07/26 04:51:32;;;;;;;;;;;;;;;31.81;67.02;99737.78;3058424;19;1279;-46
2022/07/26 04:52:36;;;;;;;;;;;;;;;31.97;65.02;99743.56;3058776;19;1684;-47
2022/07/26 04:53:41;;;;;;;;;;;;;;;32.05;65.60;99740.34;3058575;19;1797;-48
2022/07/26 04:54:43;;;;;;;;;;;;;;;32.03;65.75;99737.00;3058292;19;1414;-46
2022/07/26 04:55:47;;;;;;;;;;;;;;;32.24;64.42;99738.19;3058862;19;1322;-47
2022/07/26 04:56:49;;;;;;;;;;;;;;;32.74;62.67;99738.88;3058877;19;1279;-47
2022/07/26 04:57:53;;;;;;;;;;;;;;;33.21;61.25;99739.13;3058372;19;1776;-48
2022/07/26 04:58:58;;;;;;;;;;;;;;;33.66;60.00;99739.88;3058434;19;1318;-48
2022/07/26 05:00:00;;;;;;;;;;;;;;;33.94;58.36;99732.09;3058009;19;1506;-47
2022/07/26 05:01:24;;;;;;;;;;;;;;;34.50;57.65;99735.28;3059135;19;1832;-49
2022/07/26 05:02:26;;;;;;;;;;;;;;;34.70;55.97;99740.06;3058803;19;1293;-46
2022/07/26 05:03:31;;;;;;;;;;;;;;;34.78;57.18;99738.75;3055980;19;1765;-48
2022/07/26 05:04:33;;;;;;;;;;;;;;;34.96;56.58;99738.25;3055265;19;1587;-48
2022/07/26 05:05:38;;;;;;;;;;;;;;;35.07;55.57;99736.34;3056017;19;1532;-48
2022/07/26 05:06:39;;;;;;;;;;;;;;;35.09;56.05;99740.50;3056971;19;1781;-47
2022/07/26 05:07:47;;;;;;;;;;;;;;;35.02;55.13;99737.19;3051573;19;1885;-48
2022/07/26 05:08:52;;;;;;;;;;;;;;;34.86;55.46;99729.91;3055742;19;1261;-46
2022/07/26 05:09:54;;;;;;;;;;;;;;;34.57;55.38;99727.53;3057085;19;1844;-47
2022/07/26 05:10:58;;;;;;;;;;;;;;;33.57;57.93;99728.47;3057154;19;1346;-50
2022/07/26 05:12:00;;;;;;;;;;;;;;;32.49;58.44;99719.19;3057355;19;1804;-49
2022/07/26 05:13:06;;;;;;;;;;;;;;;31.78;63.43;99724.47;3055896;19;1416;-48
2022/07/26 05:14:08;;;;;;;;;;;;;;;31.18;65.69;99720.63;3057253;19;948;-49
2022/07/26 05:15:13;;;;;;;;;;;;;;;30.59;66.15;99720.00;3058527;19;1174;-50
2022/07/26 05:16:15;;;;;;;;;;;;;;;30.27;69.70;99720.41;3057626;19;835;-47
2022/07/26 05:17:19;;;;;;;;;;;;;;;29.91;71.12;99717.88;3057208;19;1039;-50
2022/07/26 05:18:25;;;;;;;;;;;;;;;29.62;74.27;99709.47;3057687;19;1181;-48
2022/07/26 05:19:27;;;;;;;;;;;;;;;29.38;77.00;99708.59;3057362;19;849;-47
2022/07/26 05:20:31;;;;;;;;;;;;;;;29.21;79.52;99710.31;3057387;19;889;-49
2022/07/26 05:21:33;;;;;;;;;;;;;;;29.01;81.00;99707.84;3057413;19;1059;-49
2022/07/26 05:22:38;;;;;;;;;;;;;;;28.81;79.80;99701.81;3057567;19;916;-49
2022/07/26 05:23:39;;;;;;;;;;;;;;;28.62;80.71;99692.72;3057713;19;916;-49
2022/07/26 05:24:44;;;;;;;;;;;;;;;28.48;81.87;99706.88;3054033;19;1738;-47
2022/07/26 05:25:46;;;;;;;;;;;;;;;28.30;82.78;99700.31;3056375;19;1047;-50
2022/07/26 05:26:50;;;;;;;;;;;;;;;28.20;84.64;99699.16;3057089;19;869;-49
2022/07/26 05:27:59;;;;;;;;;;;;;;;28.01;84.89;99684.56;3056804;19;2546;-48
2022/07/26 05:29:03;;;;;;;;;;;;;;;27.91;84.63;99690.56;3056495;19;1723;-49
2022/07/26 05:30:05;;;;;;;;;;;;;;;27.77;84.59;99693.69;3057222;19;1526;-49
2022/07/26 05:31:10;;;;;;;;;;;;;;;27.67;87.28;99690.56;3057113;19;1244;-46
2022/07/26 05:32:12;;;;;;;;;;;;;;;27.55;90.09;99691.31;3056046;19;1906;-48
2022/07/26 05:33:16;;;;;;;;;;;;;;;27.47;91.73;99682.50;3056332;19;1031;-49
2022/07/26 05:34:18;;;;;;;;;;;;;;;27.42;92.56;99680.44;3057154;19;2369;-49
2022/07/26 05:35:23;;;;;;;;;;;;;;;27.37;91.89;99671.22;3057180;19;1495;-47
2022/07/26 05:36:27;;;;;;;;;;;;;;;27.26;90.38;99675.50;3056726;19;865;-49
2022/07/26 05:37:29;;;;;;;;;;;;;;;27.19;90.83;99680.19;3056574;19;1690;-49
2022/07/26 05:38:33;;;;;;;;;;;;;;;27.13;91.02;99675.59;3057536;19;1101;-48
2022/07/26 05:39:35;;;;;;;;;;;;;;;27.09;92.59;99679.84;3055874;19;1799;-49
2022/07/26 05:40:43;;;;;;;;;;;;;;;27.08;94.32;99673.53;3056605;19;1888;-48